Charleston, Illinois
Current Conditions -  °F | °C
As of 8:53 PM on Monday 22 Dec 2014 (Local Time) from KMTO Reporting Station
Light Rain Light Rain  
Wind Chill: 41°   Ceiling: 700
Heat Index: 47°   Visibility: 7mi
Dew Point: 45°   Wind: 14mph
Humidity: 93%   Direction: 150°SSE
Pressure: 29.57"   Gusts: 22mph
Location:  39.5°N, 88.18°W
Report Text: KMTO 230253Z AUTO 15012G19KT 7SM -RA OVC007 08/07 A2957 RMK AO2 CIG 005V011 SLP017 P0000 60012 T00830072 58012
Loading
Personal Weather Stations






























Interactive Weather Map New forecast layout! Learn more

10-Day Weather Forecast

Advertisements
Track Severe Weather on mobile